Etusivu
METAR-TAF:

METAR-TAF

Lentoasemat :

El Borma, Tunisia

Leveyspiiri: 31-41N, Pituuspiiri: 009-10E, korkeus merenpinnasta: 258 m

Tämänhetkinen sää

Tämä raportti tehtiin 44 minuuttia sitten, kello 10.00 UTC
Tuuli 8 kn kaakosta, vaihdellen idän ja etelän/kaakon välillä
Lämpötila 29°C
Kosteus 19%
Ilmanpaine 1019 hPa
Näkyvyys 10 km tai enemmän
ei pilviä alle 1500 m:ssä eikä cumulonimbus-pilviä

METAR: DTTR 291000Z 13008KT 080V160 CAVOK 29/03 Q1019 NOSIG

Aika: 11:44 (10:44 UTC)

Sääennuste

Tämä raportti tehtiin 1 tunti ja 44 minuuttia sitten, kello 09.00 UTC
Ennuste voimassa 29. päivästä klo 10 UTC - 29. päivään klo 19 UTC
Tuuli 10 kn kaakosta
Näkyvyys 10 km tai enemmän
ei pilviä alle 1500 m:ssä eikä cumulonimbus-pilviä
Tulossa
29. päivästä klo 13 UTC - 29. päivään klo 15 UTC
Tuuli 10 kn pohjoisen/luoteesta

TAF: DTTR 290900Z 2910/2919 13010KT CAVOK BECMG 2913/2915 34010KT

Säähavainnot ja -ennusteet yli 4000 lentoasemalta (METAR- ja TAF-raportit).

Käytössä olevat sääasemat on merkitty karttaan keltaisilla ja punaisilla pisteillä.

Aseta hiiri pisteen päälle nähdäksesi sääaseman nimen.

Klikkaa sitten nähdäksesi säähavainnot ja -ennusteet.

Kartan vaihtaminen: klikkaa mustalla rastilla varustettuja vihreitä pisteitä, niin voit zoomata sisään; viivalla varustettua vihreää pistettä, niin voit zoomata ulos tai vihreitä nuolia, niin pääset viereisille kartoille.


METAR-TAF: